Time;durP1;ratioP1;P1;durP2;ratioP2;P2;SDS_P1;SDS_P2;PMS_P1;PMS_P2;Temp;Humidity;BMP_temperature;BMP_pressure;BME280_temperature;BME280_humidity;BME280_pressure;Samples;Min_cycle;Max_cycle;Signal;HPM_P1;HPM_P2
2021/10/26 00:02:25;;;;;;;5.63;3.72;;;;;;;21.68;30.53;101169.78;5101017;28;20411;-58
2021/10/26 00:04:53;;;;;;;4.65;3.38;;;;;;;21.67;30.53;101181.59;5102053;28;20051;-59
2021/10/26 00:07:21;;;;;;;3.50;2.53;;;;;;;21.69;30.57;101170.63;5112175;28;20054;-56
2021/10/26 00:09:49;;;;;;;4.45;2.70;;;;;;;21.70;30.69;101180.50;5085971;28;20056;-61
2021/10/26 00:12:16;;;;;;;4.10;2.80;;;;;;;21.70;30.52;101177.81;5108663;28;20058;-55
2021/10/26 00:14:45;;;;;;;4.82;2.92;;;;;;;21.70;30.47;101182.38;5093761;28;20047;-58
2021/10/26 00:17:13;;;;;;;5.03;2.67;;;;;;;21.69;30.52;101176.06;5111354;28;20052;-55
2021/10/26 00:19:41;;;;;;;4.07;2.63;;;;;;;21.70;30.36;101166.97;5112076;28;20055;-57
2021/10/26 00:22:09;;;;;;;4.03;2.45;;;;;;;21.68;30.45;101161.66;5108200;28;20400;-57
2021/10/26 00:24:37;;;;;;;4.10;2.63;;;;;;;21.70;30.53;101161.56;5103775;28;20055;-57
2021/10/26 00:27:05;;;;;;;4.15;2.60;;;;;;;21.69;30.36;101154.38;5104085;28;20052;-58
2021/10/26 00:29:33;;;;;;;4.05;2.75;;;;;;;21.69;30.45;101148.97;5105151;28;20052;-55
2021/10/26 00:32:00;;;;;;;4.10;2.47;;;;;;;21.70;30.43;101148.03;5099085;28;20052;-54
2021/10/26 00:34:30;;;;;;;4.38;2.60;;;;;;;21.68;30.48;101147.25;5106475;28;20060;-57
2021/10/26 00:36:58;;;;;;;3.88;2.55;;;;;;;21.69;30.54;101135.44;5097708;28;20071;-56
2021/10/26 00:39:26;;;;;;;5.03;2.95;;;;;;;21.67;30.45;101135.56;5092256;28;20515;-58
2021/10/26 00:41:54;;;;;;;4.70;2.88;;;;;;;21.70;30.63;101125.50;5112729;27;20078;-60
2021/10/26 00:44:22;;;;;;;4.75;2.83;;;;;;;21.68;30.46;101131.88;5106638;27;20048;-57
2021/10/26 00:46:50;;;;;;;4.57;2.70;;;;;;;21.69;30.54;101124.59;5098952;28;20512;-57
2021/10/26 00:49:18;;;;;;;4.13;2.97;;;;;;;21.67;30.39;101119.31;5099405;28;20056;-56
2021/10/26 00:51:47;;;;;;;3.80;2.63;;;;;;;21.70;30.36;101136.34;5085965;28;20051;-56
2021/10/26 00:54:16;;;;;;;4.65;2.70;;;;;;;21.68;30.34;101134.56;5083360;28;20060;-53
2021/10/26 00:56:51;;;;;;;5.57;3.00;;;;;;;21.68;30.32;101126.44;5090839;28;20424;-57
2021/10/26 00:59:19;;;;;;;4.38;3.05;;;;;;;21.67;30.45;101113.91;5108259;28;20052;-54
2021/10/26 01:01:51;;;;;;;4.75;3.28;;;;;;;21.66;30.42;101109.47;5106538;28;20052;-58
2021/10/26 01:04:20;;;;;;;3.95;2.83;;;;;;;21.59;30.37;101099.22;5097450;28;20055;-56
2021/10/26 01:06:49;;;;;;;3.95;2.45;;;;;;;21.68;30.46;101107.50;5087492;28;20056;-56
2021/10/26 01:09:17;;;;;;;4.80;3.47;;;;;;;21.69;30.47;101113.78;5107543;28;20500;-56
2021/10/26 01:11:45;;;;;;;3.38;2.30;;;;;;;21.70;30.43;101117.38;5101759;28;20052;-56
2021/10/26 01:14:13;;;;;;;4.68;2.70;;;;;;;21.67;30.31;101115.75;5099574;28;20059;-54
2021/10/26 01:16:40;;;;;;;4.95;3.00;;;;;;;21.67;30.31;101116.59;5101440;28;20594;-54
2021/10/26 01:19:09;;;;;;;4.07;2.80;;;;;;;21.70;30.40;101122.78;5092901;28;20043;-58
2021/10/26 01:21:38;;;;;;;3.70;2.50;;;;;;;21.65;30.30;101102.31;5094705;28;20051;-56
2021/10/26 01:24:07;;;;;;;4.53;2.78;;;;;;;21.67;30.38;101094.09;5085993;28;20052;-57
2021/10/26 01:26:36;;;;;;;4.05;2.75;;;;;;;21.69;30.43;101108.34;5081964;28;20063;-57
2021/10/26 01:29:04;;;;;;;3.38;2.58;;;;;;;21.69;30.43;101105.66;5115268;28;20054;-58
2021/10/26 01:31:36;;;;;;;4.75;3.45;;;;;;;21.67;30.27;101089.53;5096879;28;20129;-61
2021/10/26 01:34:14;;;;;;;4.13;2.92;;;;;;;21.70;30.30;101109.25;5091449;28;20078;-56
2021/10/26 01:36:43;;;;;;;5.00;3.10;;;;;;;21.68;30.22;101085.84;5089617;28;20060;-58
2021/10/26 01:39:11;;;;;;;4.05;3.08;;;;;;;21.66;30.27;101097.78;5099741;28;20044;-58
2021/10/26 01:41:39;;;;;;;4.50;2.95;;;;;;;21.68;30.33;101102.09;5099685;28;20051;-61
2021/10/26 01:44:07;;;;;;;4.10;2.70;;;;;;;21.67;30.36;101094.94;5092853;28;20048;-55
2021/10/26 01:46:38;;;;;;;3.58;2.58;;;;;;;21.68;30.25;101085.84;5076966;28;20059;-53
2021/10/26 01:49:06;;;;;;;3.90;2.95;;;;;;;21.69;30.25;101102.94;5092352;28;20062;-54
2021/10/26 01:51:34;;;;;;;4.03;2.60;;;;;;;21.68;30.25;101110.22;5104148;28;20047;-56
2021/10/26 01:54:05;;;;;;;3.85;2.60;;;;;;;21.68;30.27;101101.22;5097063;28;20062;-57
2021/10/26 01:56:39;;;;;;;4.88;2.92;;;;;;;21.69;30.26;101102.94;5112016;28;20389;-52
2021/10/26 01:59:07;;;;;;;4.93;3.20;;;;;;;21.69;30.24;101081.28;5092492;28;20163;-54
2021/10/26 02:01:46;;;;;;;3.58;2.60;;;;;;;21.68;30.18;101080.44;5091405;28;20052;-55
2021/10/26 02:04:29;;;;;;;3.25;2.38;;;;;;;21.69;30.24;101084.00;5096628;28;20522;-61
2021/10/26 02:06:58;;;;;;;4.20;2.60;;;;;;;21.67;30.26;101086.81;5096452;28;20059;-57
2021/10/26 02:09:27;;;;;;;4.38;2.70;;;;;;;21.66;30.12;101090.53;5111555;28;20071;-61
2021/10/26 02:11:55;;;;;;;5.00;3.33;;;;;;;21.67;30.28;101080.56;5112422;28;20395;-56
2021/10/26 02:14:23;;;;;;;4.35;2.95;;;;;;;21.68;30.33;101080.44;5103163;28;20403;-56
2021/10/26 02:16:51;;;;;;;4.88;3.03;;;;;;;21.68;30.27;101076.84;5096920;28;20067;-57
2021/10/26 02:19:20;;;;;;;4.70;3.10;;;;;;;21.66;30.25;101068.84;5102544;28;20063;-57
2021/10/26 02:21:49;;;;;;;4.38;2.67;;;;;;;21.68;30.30;101082.28;5105320;28;20064;-59
2021/10/26 02:24:19;;;;;;;2.85;2.55;;;;;;;21.66;30.12;101071.56;5112496;28;20059;-56
2021/10/26 02:26:48;;;;;;;5.47;3.53;;;;;;;21.68;30.12;101080.44;5090847;28;20056;-60
2021/10/26 02:29:16;;;;;;;3.70;2.70;;;;;;;21.67;30.27;101070.59;5098780;28;20404;-57
2021/10/26 02:31:46;;;;;;;5.10;3.10;;;;;;;21.67;30.28;101069.72;5101663;28;20443;-57
2021/10/26 02:34:16;;;;;;;4.57;3.10;;;;;;;21.67;30.08;101058.88;5100645;28;20058;-56
2021/10/26 02:36:45;;;;;;;4.35;2.80;;;;;;;21.68;30.11;101057.91;5095672;28;20055;-57
2021/10/26 02:39:14;;;;;;;3.95;2.63;;;;;;;21.68;29.99;101066.88;5077887;28;20052;-57
2021/10/26 02:41:43;;;;;;;3.90;2.47;;;;;;;21.68;30.18;101061.47;5109797;28;20064;-57
2021/10/26 02:44:12;;;;;;;3.83;2.65;;;;;;;21.68;30.13;101055.19;5110735;28;20051;-51
2021/10/26 02:46:41;;;;;;;3.97;2.70;;;;;;;21.68;30.13;101052.50;5088334;28;20052;-51
2021/10/26 02:49:10;;;;;;;4.05;2.78;;;;;;;21.68;30.11;101047.06;5083653;28;20465;-60
2021/10/26 02:51:40;;;;;;;4.85;3.03;;;;;;;21.67;30.20;101056.19;5094599;28;20047;-57
2021/10/26 02:54:09;;;;;;;4.03;3.33;;;;;;;21.68;30.11;101063.31;5101965;28;20055;-48
2021/10/26 02:56:38;;;;;;;4.07;2.65;;;;;;;21.66;30.13;101054.47;5101714;28;20052;-54
2021/10/26 02:59:06;;;;;;;3.08;2.45;;;;;;;21.67;30.01;101042.66;5095102;28;20066;-58
2021/10/26 03:01:37;;;;;;;4.18;2.80;;;;;;;21.68;30.09;101057.91;5091825;28;20058;-52
2021/10/26 03:04:05;;;;;;;4.32;2.97;;;;;;;21.65;30.05;101048.16;5095280;28;20062;-52
2021/10/26 03:06:33;;;;;;;4.47;2.65;;;;;;;21.67;30.07;101050.78;5091916;28;20071;-52
2021/10/26 03:09:01;;;;;;;4.10;2.53;;;;;;;21.67;30.23;101048.06;5089742;28;20082;-55
2021/10/26 03:11:33;;;;;;;4.28;2.53;;;;;;;21.67;30.12;101037.22;5115255;28;20150;-56
2021/10/26 03:14:01;;;;;;;3.70;2.72;;;;;;;21.67;30.12;101037.22;5094322;28;20400;-57
2021/10/26 03:16:30;;;;;;;4.70;3.15;;;;;;;21.67;30.17;101034.53;5097253;28;20055;-56
2021/10/26 03:19:01;;;;;;;4.05;2.60;;;;;;;21.67;29.99;101037.22;5107069;28;20044;-55
2021/10/26 03:21:29;;;;;;;3.40;2.50;;;;;;;21.67;30.12;101031.81;5094482;28;20048;-55
2021/10/26 03:23:56;;;;;;;4.28;3.00;;;;;;;21.67;30.08;101031.81;5106928;27;20054;-53
2021/10/26 03:26:24;;;;;;;3.65;2.65;;;;;;;21.66;30.10;101030.97;5095448;28;20062;-57
2021/10/26 03:28:52;;;;;;;3.90;2.75;;;;;;;21.67;30.08;101029.09;5109658;28;20071;-56
2021/10/26 03:31:21;;;;;;;4.38;3.08;;;;;;;21.66;30.04;101020.13;5076851;28;20057;-57
2021/10/26 03:34:08;;;;;;;4.10;3.28;;;;;;;21.64;30.07;101018.50;5112417;28;20056;-57
2021/10/26 03:36:36;;;;;;;4.25;2.58;;;;;;;21.64;30.07;101019.38;5082250;28;20408;-56
2021/10/26 03:39:04;;;;;;;3.83;2.60;;;;;;;21.67;30.07;101018.28;5098426;27;20054;-56
2021/10/26 03:41:32;;;;;;;3.83;2.45;;;;;;;21.66;30.07;101025.53;5107668;27;20500;-55
2021/10/26 03:44:02;;;;;;;3.45;2.75;;;;;;;21.66;30.17;101020.13;5087050;28;20093;-55
2021/10/26 03:46:33;;;;;;;3.40;2.55;;;;;;;21.66;30.00;101020.13;5068573;28;20059;-56
2021/10/26 03:49:02;;;;;;;3.72;2.50;;;;;;;21.64;30.07;101011.25;5079559;28;20385;-57
2021/10/26 03:51:32;;;;;;;4.43;2.88;;;;;;;21.66;30.07;101008.44;5095560;28;20606;-57
2021/10/26 03:54:00;;;;;;;4.20;2.83;;;;;;;21.65;30.20;101014.81;5091533;28;20404;-56
2021/10/26 03:56:28;;;;;;;3.88;2.35;;;;;;;21.66;30.10;101008.44;5113374;27;20052;-56
2021/10/26 03:59:04;;;;;;;4.95;3.10;;;;;;;21.65;30.11;101015.66;5100988;28;20043;-54
2021/10/26 04:01:32;;;;;;;3.33;2.80;;;;;;;21.66;30.00;101019.28;5093983;28;20059;-55
2021/10/26 04:03:59;;;;;;;5.00;2.70;;;;;;;21.65;29.99;101015.66;5104525;28;20048;-55
2021/10/26 04:06:33;;;;;;;4.10;2.97;;;;;;;21.65;30.03;101002.13;5105096;28;20063;-56
2021/10/26 04:09:03;;;;;;;3.88;2.67;;;;;;;21.65;30.06;101009.41;5093163;28;20052;-53
2021/10/26 04:11:39;;;;;;;4.03;2.83;;;;;;;21.65;30.01;101002.13;5094074;28;20348;-57
2021/10/26 04:14:07;;;;;;;4.65;2.58;;;;;;;21.65;30.08;100996.72;5094482;28;20055;-56
2021/10/26 04:16:35;;;;;;;4.18;2.70;;;;;;;21.65;30.06;100996.72;5088732;28;20047;-54
2021/10/26 04:19:03;;;;;;;3.65;2.35;;;;;;;21.64;29.89;100999.56;5086943;28;20076;-55
2021/10/26 04:21:32;;;;;;;3.65;2.53;;;;;;;21.65;30.00;101006.69;5109080;27;20051;-55
2021/10/26 04:24:02;;;;;;;4.28;2.47;;;;;;;21.65;30.03;101001.28;5079534;28;20060;-56
2021/10/26 04:26:30;;;;;;;3.72;2.63;;;;;;;21.64;30.02;100999.56;5101348;28;20047;-55
2021/10/26 04:28:57;;;;;;;4.03;2.63;;;;;;;21.65;29.96;100996.72;5105432;28;20043;-56
2021/10/26 04:31:25;;;;;;;3.65;2.40;;;;;;;21.64;29.99;100986.88;5083599;28;20056;-54
2021/10/26 04:33:53;;;;;;;5.15;3.22;;;;;;;21.65;29.93;100990.44;5091141;28;20048;-54
2021/10/26 04:36:22;;;;;;;4.38;2.55;;;;;;;21.65;30.11;100993.16;5099259;28;20055;-53
2021/10/26 04:38:56;;;;;;;3.72;2.38;;;;;;;21.64;29.95;100986.88;5099654;27;20066;-58
2021/10/26 04:41:24;;;;;;;4.38;3.33;;;;;;;21.63;30.13;100987.00;5081652;28;20055;-58
2021/10/26 04:43:53;;;;;;;3.58;2.47;;;;;;;21.64;30.01;100986.00;5086931;28;20051;-59
2021/10/26 04:46:21;;;;;;;4.50;2.65;;;;;;;21.65;29.92;100985.88;5117295;27;20056;-55
2021/10/26 04:48:49;;;;;;;5.88;2.65;;;;;;;21.62;29.99;100986.16;5093305;28;20051;-56
2021/10/26 04:51:17;;;;;;;3.80;2.45;;;;;;;21.65;30.03;100996.72;5092965;28;20060;-55
2021/10/26 04:53:45;;;;;;;3.20;2.40;;;;;;;21.64;30.02;100994.13;5088585;28;20063;-57
2021/10/26 04:56:15;;;;;;;3.42;2.08;;;;;;;21.65;29.93;100990.44;5087656;28;20048;-52
2021/10/26 04:59:03;;;;;;;2.97;2.17;;;;;;;21.65;29.90;100988.59;5077531;28;20059;-58
2021/10/26 05:01:32;;;;;;;3.28;2.42;;;;;;;21.66;29.98;100986.78;5092478;28;20052;-54
2021/10/26 05:04:01;;;;;;;3.65;2.63;;;;;;;21.65;29.92;100987.72;5074373;28;20051;-56
2021/10/26 05:06:29;;;;;;;3.80;2.17;;;;;;;21.65;29.94;100983.19;5092863;28;20144;-57
2021/10/26 05:08:57;;;;;;;4.93;2.80;;;;;;;21.65;30.15;100979.63;5090864;28;20055;-54
2021/10/26 05:11:26;;;;;;;4.22;2.55;;;;;;;21.65;29.91;100994.00;5089393;28;20058;-55
2021/10/26 05:13:55;;;;;;;4.03;2.50;;;;;;;21.65;29.99;100985.03;5088362;28;20058;-55
2021/10/26 05:16:43;;;;;;;5.13;3.00;;;;;;;21.66;29.94;100984.06;5098736;28;20048;-56
2021/10/26 05:19:39;;;;;;;3.58;2.28;;;;;;;21.66;29.86;100987.63;5101519;28;20059;-55
2021/10/26 05:22:27;;;;;;;3.40;2.30;;;;;;;21.65;30.01;100990.44;5101794;28;20047;-56
2021/10/26 05:25:24;;;;;;;3.67;2.53;;;;;;;21.64;30.04;100981.47;5097343;28;20055;-56
2021/10/26 05:28:04;;;;;;;4.28;2.50;;;;;;;21.66;30.04;100989.50;5092631;27;20059;-52
2021/10/26 05:30:31;;;;;;;5.10;2.65;;;;;;;21.66;29.96;100992.19;5109317;27;20063;-54
2021/10/26 05:32:59;;;;;;;3.72;2.30;;;;;;;21.63;30.08;100984.28;5094033;28;20052;-57
2021/10/26 05:35:28;;;;;;;4.78;2.90;;;;;;;21.63;30.04;100993.28;5110478;28;20056;-55
2021/10/26 05:37:57;;;;;;;3.25;2.25;;;;;;;21.65;30.07;100996.72;5097678;28;20048;-54
2021/10/26 05:40:25;;;;;;;4.18;2.70;;;;;;;21.65;29.98;100996.72;5110039;27;20062;-52
2021/10/26 05:42:53;;;;;;;3.30;2.50;;;;;;;21.65;29.99;101002.13;5102846;28;20431;-56
2021/10/26 05:45:22;;;;;;;3.90;2.55;;;;;;;21.64;30.07;101007.69;5104676;27;20055;-55
2021/10/26 05:47:50;;;;;;;5.25;3.03;;;;;;;21.64;30.01;101005.81;5106766;28;20051;-55
2021/10/26 05:50:18;;;;;;;3.55;2.63;;;;;;;21.65;30.04;101012.09;5108618;28;20433;-58
2021/10/26 05:52:46;;;;;;;3.65;2.22;;;;;;;21.53;30.13;100986.81;5100496;27;20044;-57
2021/10/26 05:55:14;;;;;;;3.85;2.50;;;;;;;21.66;30.04;101013.84;5097630;28;20056;-57
2021/10/26 05:57:42;;;;;;;3.65;2.55;;;;;;;21.66;29.99;101008.44;5100423;28;20055;-56
2021/10/26 06:00:11;;;;;;;3.13;2.40;;;;;;;21.65;30.14;101010.25;5086997;28;20070;-55
2021/10/26 06:02:42;;;;;;;3.92;2.60;;;;;;;21.65;30.03;101015.66;5077705;28;20385;-57
2021/10/26 06:05:11;;;;;;;4.60;2.50;;;;;;;21.65;30.17;101017.50;5099538;28;20415;-56
2021/10/26 06:07:39;;;;;;;3.80;2.53;;;;;;;21.65;30.00;101017.50;5093756;28;20051;-56
2021/10/26 06:10:09;;;;;;;3.85;2.80;;;;;;;21.64;30.05;101008.53;5086207;28;20814;-57
2021/10/26 06:12:44;;;;;;;4.00;2.70;;;;;;;21.65;30.06;101007.53;5076925;28;20059;-58
2021/10/26 06:15:12;;;;;;;3.65;2.45;;;;;;;21.65;30.15;100998.56;5085276;28;20060;-60
2021/10/26 06:17:40;;;;;;;4.95;2.65;;;;;;;21.66;29.97;101003.88;5081143;28;20052;-55
2021/10/26 06:20:11;;;;;;;3.58;2.33;;;;;;;21.66;30.14;101003.03;5095621;28;20063;-57
2021/10/26 06:22:39;;;;;;;4.78;3.13;;;;;;;21.66;30.06;101008.44;5087928;27;22405;-56
2021/10/26 06:25:09;;;;;;;3.67;2.22;;;;;;;21.65;30.08;101002.13;5077139;27;20051;-57
2021/10/26 06:27:56;;;;;;;5.22;2.90;;;;;;;21.66;30.07;101003.03;5089399;27;20047;-57
2021/10/26 06:30:26;;;;;;;3.78;2.55;;;;;;;21.66;30.21;101003.88;5087805;28;20051;-59
2021/10/26 06:33:08;;;;;;;4.10;2.92;;;;;;;21.66;30.25;101012.00;5068346;28;20047;-57
2021/10/26 06:35:49;;;;;;;3.83;2.38;;;;;;;21.63;30.33;101011.38;5084305;27;20051;-55
2021/10/26 06:38:21;;;;;;;3.80;2.70;;;;;;;21.65;30.32;101015.66;5082432;28;20162;-55
2021/10/26 06:40:50;;;;;;;4.57;3.13;;;;;;;21.66;30.52;101020.13;5084596;27;20059;-53
2021/10/26 06:43:48;;;;;;;4.07;2.78;;;;;;;21.67;30.53;101018.28;5020710;28;20100;-60
2021/10/26 06:46:35;;;;;;;2.78;2.22;;;;;;;21.63;30.58;101024.91;5083093;28;20827;-58
2021/10/26 06:49:21;;;;;;;3.65;2.30;;;;;;;21.67;30.48;101021.84;5086498;27;20051;-56
2021/10/26 06:52:09;;;;;;;3.22;2.17;;;;;;;21.63;30.55;101024.91;5099993;28;20043;-59
2021/10/26 06:54:56;;;;;;;3.25;2.20;;;;;;;21.68;30.53;101028.13;5101045;28;21103;-56
2021/10/26 06:57:45;;;;;;;4.32;2.40;;;;;;;21.67;30.64;101023.69;5101487;27;20048;-55
2021/10/26 07:00:19;;;;;;;3.60;2.30;;;;;;;21.66;30.62;101021.97;5088089;27;20058;-55
2021/10/26 07:03:11;;;;;;;3.88;2.80;;;;;;;21.67;30.68;101023.69;5044353;28;20063;-55
2021/10/26 07:05:41;;;;;;;4.32;2.78;;;;;;;21.68;30.66;101028.13;5083390;28;20079;-58
2021/10/26 07:08:29;;;;;;;4.70;3.00;;;;;;;21.65;30.83;101026.50;5087887;27;20047;-57
2021/10/26 07:11:18;;;;;;;3.65;2.63;;;;;;;21.68;30.74;101020.00;5089503;28;20051;-56
2021/10/26 07:13:45;;;;;;;3.30;2.55;;;;;;;21.68;30.66;101022.72;5093495;27;20067;-54
2021/10/26 07:16:13;;;;;;;3.78;2.47;;;;;;;21.67;30.80;101011.03;5086107;28;20055;-54
2021/10/26 07:18:41;;;;;;;3.67;2.30;;;;;;;21.67;30.75;101019.13;5097773;27;20062;-52
2021/10/26 07:21:10;;;;;;;4.80;2.88;;;;;;;21.69;30.91;101027.13;5076861;27;20048;-59
2021/10/26 07:23:45;;;;;;;3.92;2.40;;;;;;;21.68;30.79;101012.75;5074855;28;20638;-54
2021/10/26 07:26:34;;;;;;;4.57;2.83;;;;;;;21.67;30.83;101013.72;5071240;28;20051;-51
2021/10/26 07:29:03;;;;;;;4.68;2.78;;;;;;;21.68;30.67;101018.16;5067388;27;21659;-55
2021/10/26 07:31:31;;;;;;;5.25;3.00;;;;;;;21.65;30.82;101004.84;5079563;28;20063;-54
2021/10/26 07:34:00;;;;;;;4.32;2.42;;;;;;;21.68;30.84;101010.03;5076443;28;20043;-53
2021/10/26 07:36:33;;;;;;;4.45;2.40;;;;;;;21.67;30.66;101002.03;5061728;28;20062;-56
2021/10/26 07:39:06;;;;;;;4.90;2.88;;;;;;;21.70;30.62;101003.66;5067236;28;20059;-56
2021/10/26 07:41:34;;;;;;;4.93;2.60;;;;;;;21.68;30.91;101007.31;5089504;27;20406;-58
2021/10/26 07:44:26;;;;;;;5.57;3.35;;;;;;;21.68;31.04;100992.94;5073968;28;20065;-56
2021/10/26 07:47:04;;;;;;;4.32;2.63;;;;;;;21.71;31.25;100983.72;5078732;27;20534;-56
2021/10/26 07:49:33;;;;;;;4.40;2.50;;;;;;;21.81;32.24;100998.31;5076900;27;20129;-58
2021/10/26 07:52:01;;;;;;;4.18;2.88;;;;;;;21.79;32.25;100992.97;5061680;28;20063;-51
2021/10/26 07:54:32;;;;;;;4.15;2.30;;;;;;;21.83;32.27;100977.38;5046999;28;20404;-56
2021/10/26 07:57:05;;;;;;;3.97;2.83;;;;;;;21.84;32.65;100971.00;5048927;28;20048;-54
2021/10/26 07:59:35;;;;;;;4.72;3.13;;;;;;;21.89;32.25;100999.44;5073042;28;20055;-57
2021/10/26 08:02:03;;;;;;;4.35;3.00;;;;;;;21.93;32.02;101000.94;5065447;28;20062;-57
2021/10/26 08:04:50;;;;;;;4.13;2.25;;;;;;;21.93;31.90;101003.63;5080533;28;20043;-56
2021/10/26 08:07:21;;;;;;;4.70;2.95;;;;;;;21.94;31.93;100991.00;5083297;27;20059;-58
2021/10/26 08:09:52;;;;;;;3.88;2.42;;;;;;;21.95;31.97;100991.84;5068720;27;20047;-58
2021/10/26 08:12:20;;;;;;;4.43;2.72;;;;;;;21.90;31.79;100984.94;5066732;28;20573;-55
2021/10/26 08:14:48;;;;;;;4.80;2.50;;;;;;;21.93;31.79;100991.94;5071063;27;20055;-52
2021/10/26 08:17:16;;;;;;;4.78;2.80;;;;;;;21.95;32.02;100992.72;5067501;28;20052;-50
2021/10/26 08:19:46;;;;;;;5.55;2.90;;;;;;;21.96;32.01;100989.00;5068002;27;20081;-56
2021/10/26 08:22:16;;;;;;;4.57;2.72;;;;;;;22.01;32.10;100991.38;5084515;27;20047;-52
2021/10/26 08:24:47;;;;;;;4.15;2.80;;;;;;;22.00;32.21;100986.94;5063127;28;20954;-57
2021/10/26 08:27:17;;;;;;;4.63;2.92;;;;;;;22.02;32.10;100990.41;5096148;27;20047;-55
2021/10/26 08:29:50;;;;;;;4.13;2.72;;;;;;;22.03;32.26;100995.69;5070646;27;20062;-53
2021/10/26 08:35:21;;;;;;;3.85;2.70;;;;;;;22.08;32.33;100987.25;5068012;27;20067;-54
2021/10/26 08:37:51;;;;;;;3.97;2.72;;;;;;;22.11;32.17;100971.63;5059229;28;20048;-55
2021/10/26 08:40:20;;;;;;;4.22;2.53;;;;;;;22.06;32.26;100973.78;5066447;28;20142;-57
2021/10/26 08:42:51;;;;;;;3.95;2.72;;;;;;;22.10;32.28;100986.13;5082559;27;20054;-57
2021/10/26 08:45:20;;;;;;;3.20;2.30;;;;;;;22.14;32.10;100989.47;5072001;28;20059;-57
2021/10/26 08:47:48;;;;;;;3.50;2.53;;;;;;;22.13;32.20;100974.19;5071674;28;20055;-54
2021/10/26 08:50:43;;;;;;;4.72;2.42;;;;;;;22.18;32.36;100988.25;5080949;28;20055;-57
2021/10/26 08:53:13;;;;;;;4.05;2.80;;;;;;;22.11;32.10;100976.13;5060526;28;20051;-59
2021/10/26 08:55:59;;;;;;;4.97;2.97;;;;;;;22.13;32.28;100987.72;5079843;28;20734;-57
2021/10/26 08:58:48;;;;;;;4.05;2.80;;;;;;;22.10;32.21;100986.13;5072902;28;20058;-60
2021/10/26 09:01:18;;;;;;;4.63;2.88;;;;;;;22.04;32.16;100983.00;5062118;28;20055;-57
2021/10/26 09:04:07;;;;;;;3.75;2.50;;;;;;;22.09;32.25;100991.66;5047648;28;20047;-54
2021/10/26 09:06:48;;;;;;;4.25;2.80;;;;;;;22.10;32.15;100990.66;5065886;28;20051;-60
2021/10/26 09:09:18;;;;;;;4.55;2.58;;;;;;;22.09;31.99;100984.41;5085046;27;20114;-58
2021/10/26 09:18:11;;;;;;;5.32;2.80;;;;;;;22.07;32.16;100999.88;5071178;28;20063;-55
2021/10/26 09:20:55;;;;;;;4.68;2.80;;;;;;;22.06;31.98;100990.03;5076341;28;20439;-56
2021/10/26 09:23:31;;;;;;;4.35;3.03;;;;;;;22.05;32.28;100996.44;5058307;28;20071;-57
2021/10/26 09:26:02;;;;;;;4.63;2.70;;;;;;;21.98;32.11;100992.47;5058881;28;20066;-59
2021/10/26 09:28:30;;;;;;;4.32;3.40;;;;;;;21.99;32.14;100990.63;5075828;28;20059;-56
2021/10/26 09:31:04;;;;;;;6.72;2.72;;;;;;;22.05;32.05;100998.31;5074542;28;20062;-57
2021/10/26 09:33:33;;;;;;;4.40;3.13;;;;;;;22.04;32.05;100996.56;5067809;27;20475;-57
2021/10/26 09:36:24;;;;;;;3.67;2.60;;;;;;;22.07;32.23;100999.03;5069913;27;20069;-57
2021/10/26 09:38:56;;;;;;;4.30;3.13;;;;;;;22.04;32.06;101001.97;5081145;28;20052;-57
2021/10/26 09:41:24;;;;;;;3.50;2.40;;;;;;;22.02;31.93;100996.69;5075187;28;21591;-56
2021/10/26 09:44:07;;;;;;;3.65;2.60;;;;;;;22.04;31.94;101002.84;5072969;28;20048;-55
2021/10/26 09:46:41;;;;;;;4.85;2.78;;;;;;;22.03;32.07;100994.84;5069398;28;20048;-58
2021/10/26 09:49:21;;;;;;;7.82;3.13;;;;;;;22.05;32.09;100999.16;5076909;27;20055;-57
2021/10/26 09:51:50;;;;;;;4.32;2.58;;;;;;;22.04;32.23;100999.25;5049367;28;20056;-58
2021/10/26 09:54:19;;;;;;;5.90;3.17;;;;;;;22.03;32.25;100995.69;5063870;28;20598;-55
2021/10/26 09:57:02;;;;;;;4.85;2.95;;;;;;;22.08;32.61;100989.94;5064801;28;20058;-60
2021/10/26 09:59:32;;;;;;;5.57;3.05;;;;;;;22.06;32.81;100992.75;5069304;28;20103;-59
2021/10/26 10:02:02;;;;;;;4.25;2.80;;;;;;;22.06;32.89;100987.34;5067754;28;20581;-58
2021/10/26 10:04:35;;;;;;;3.97;2.53;;;;;;;22.07;33.01;100985.47;5073962;27;20075;-54
2021/10/26 10:07:06;;;;;;;4.60;2.80;;;;;;;22.00;33.12;100976.09;5083641;27;20052;-58
2021/10/26 10:09:34;;;;;;;4.35;2.83;;;;;;;22.09;33.26;100987.09;5078889;27;20047;-57
2021/10/26 10:12:05;;;;;;;4.78;2.78;;;;;;;22.04;33.27;100983.91;5078123;27;20063;-60
2021/10/26 10:14:38;;;;;;;6.35;3.63;;;;;;;22.08;33.29;100990.81;5063591;27;20426;-56
2021/10/26 10:17:09;;;;;;;4.53;2.80;;;;;;;22.11;33.37;100996.00;5057394;27;20835;-55
2021/10/26 10:19:37;;;;;;;3.83;2.53;;;;;;;22.10;33.26;100990.66;5068259;27;21473;-57
2021/10/26 10:22:07;;;;;;;3.88;2.78;;;;;;;22.10;33.38;100985.25;5069852;27;20506;-55
2021/10/26 10:24:39;;;;;;;5.22;3.22;;;;;;;22.07;33.41;100989.06;5076479;27;20056;-52
2021/10/26 10:27:09;;;;;;;3.55;2.67;;;;;;;22.06;33.52;100984.63;5063622;27;20067;-58
2021/10/26 10:29:38;;;;;;;6.78;3.85;;;;;;;22.08;33.43;100984.53;5055481;28;20067;-57
2021/10/26 10:32:08;;;;;;;5.63;2.47;;;;;;;22.07;33.30;100975.50;5066424;27;20058;-57
2021/10/26 10:34:36;;;;;;;5.90;2.75;;;;;;;22.06;33.60;100973.78;5082607;27;20871;-59
2021/10/26 10:37:04;;;;;;;4.18;2.33;;;;;;;22.10;33.58;100980.69;5076267;28;20062;-55
2021/10/26 10:39:34;;;;;;;4.82;2.78;;;;;;;22.07;33.75;100974.66;5072094;27;20741;-54
2021/10/26 10:42:13;;;;;;;5.97;3.25;;;;;;;22.14;33.72;100975.91;5075195;27;20066;-58
2021/10/26 10:44:41;;;;;;;4.32;2.70;;;;;;;22.21;33.74;100979.91;5076644;27;20053;-56
2021/10/26 10:47:34;;;;;;;6.10;3.20;;;;;;;22.27;33.71;100982.16;5071240;27;20048;-60
2021/10/26 10:50:02;;;;;;;4.18;2.60;;;;;;;22.29;33.85;100968.47;5069713;27;20055;-54
2021/10/26 10:52:32;;;;;;;4.40;3.03;;;;;;;22.32;33.83;100977.25;5057668;27;20059;-53
2021/10/26 10:55:01;;;;;;;6.38;3.03;;;;;;;22.33;33.96;100975.41;5078045;27;20048;-56
2021/10/26 10:57:32;;;;;;;4.70;3.00;;;;;;;22.29;33.73;100966.66;5078170;27;20052;-58
2021/10/26 11:00:01;;;;;;;5.55;3.15;;;;;;;22.31;33.78;100971.94;5068529;27;20048;-57
2021/10/26 11:02:34;;;;;;;4.50;2.88;;;;;;;22.34;33.76;100969.84;5072974;27;22090;-55
2021/10/26 11:05:03;;;;;;;4.55;2.88;;;;;;;22.31;33.96;100964.66;5075146;27;20071;-56
2021/10/26 11:07:54;;;;;;;5.28;3.75;;;;;;;22.18;33.60;100931.38;5077232;27;20048;-52
2021/10/26 11:10:22;;;;;;;5.35;3.15;;;;;;;22.35;33.95;100970.72;5085477;27;20047;-50
2021/10/26 11:12:57;;;;;;;4.57;2.33;;;;;;;22.37;33.87;100966.91;5079607;27;21917;-53
2021/10/26 11:15:43;;;;;;;4.13;2.70;;;;;;;22.37;33.87;100958.78;5079581;27;20051;-57
2021/10/26 11:18:12;;;;;;;;;;;;;;;22.46;33.57;100968.03;5063985;27;20055;-59
2021/10/26 11:20:47;;;;;;;5.93;3.20;;;;;;;22.42;33.86;100957.56;5068263;27;19947;-59
2021/10/26 11:23:32;;;;;;;4.60;2.90;;;;;;;22.43;33.80;100956.56;5081476;27;20400;-55
2021/10/26 11:26:05;;;;;;;4.80;3.40;;;;;;;22.43;33.97;100949.31;5074059;27;20059;-53
2021/10/26 11:28:54;;;;;;;4.63;2.55;;;;;;;22.25;33.93;100913.66;5058814;27;20641;-52
2021/10/26 11:31:27;;;;;;;4.57;3.17;;;;;;;22.47;33.99;100947.22;5080400;27;20044;-54
2021/10/26 11:34:06;;;;;;;4.40;3.08;;;;;;;22.48;33.84;100940.81;5062081;27;20056;-55
2021/10/26 11:36:36;;;;;;;4.07;2.70;;;;;;;22.43;33.96;100934.88;5076731;27;20051;-53
2021/10/26 11:39:06;;;;;;;4.57;2.80;;;;;;;22.49;33.83;100946.09;5071764;27;20712;-52
2021/10/26 11:41:35;;;;;;;5.10;3.40;;;;;;;22.51;33.97;100946.00;5064465;27;20498;-55
2021/10/26 11:44:05;;;;;;;5.15;3.10;;;;;;;22.55;33.91;100937.50;5071284;27;20047;-54
2021/10/26 11:46:33;;;;;;;6.00;2.97;;;;;;;22.89;33.17;100923.97;5074697;27;20062;-58
2021/10/26 11:49:07;;;;;;;4.05;2.83;;;;;;;23.05;33.19;100927.16;5066331;28;20043;-52
2021/10/26 11:51:38;;;;;;;5.80;2.95;;;;;;;23.03;33.02;100929.16;5074472;27;20050;-58
2021/10/26 11:54:09;;;;;;;5.03;3.20;;;;;;;23.01;32.94;100927.56;5078432;27;21057;-52
2021/10/26 11:56:37;;;;;;;4.72;2.83;;;;;;;22.99;33.19;100921.38;5066013;28;20051;-59